Aviation Digital Data Service (ADDS)

Output produced by METARs form (0658 UTC 31 October 2014)
found at http://www.aviationweather.gov/adds/metars/
 
KJST 310654Z AUTO 17003KT 10SM OVC036 04/02 A2997 RMK AO2 SLP161 T00440022
KJST 310554Z AUTO 00000KT 10SM OVC037 04/02 A2999 RMK AO2 SLP167 T00440017 10056 20044 58008
KJST 310454Z AUTO 00000KT 10SM FEW029 OVC034 04/02 A3000 RMK AO2 SLP172 T00440022 400720039
KJST 310354Z AUTO 00000KT 10SM OVC036 05/02 A3001 RMK AO2 SLP174 T00500017
KJST 310254Z AUTO 32003KT 10SM OVC037 05/02 A3001 RMK AO2 SLP177 T00500017 57005
KJST 310154Z AUTO 00000KT 10SM FEW022 OVC038 05/02 A3002 RMK AO2 SLP180 T00500017
KJST 310054Z AUTO 31003KT 10SM FEW019 FEW026 OVC036 06/02 A3002 RMK AO2 SLP179 T00560017
KJST 310026Z AUTO 34004KT 10SM SCT026 OVC032 06/02 A3002 RMK AO2 T00560017
KJST 302354Z AUTO 33004KT 10SM BKN023 OVC031 06/02 A3003 RMK AO2 RAB26E39 SLP182 P0000 60000 T00560017 10067 20056 50000
KJST 302254Z AUTO 27004KT 10SM BKN022 BKN026 OVC041 06/01 A3003 RMK AO2 SLP183 T00610011
KJST 302154Z AUTO 29005KT 10SM SCT030 OVC038 06/01 A3002 RMK AO2 SLP179 T00610011
KJST 302054Z AUTO 29005KT 10SM FEW028 OVC039 06/01 A3003 RMK AO2 SLP181 T00610011 53001
KJST 302049Z AUTO 28005KT 10SM FEW023 SCT028 OVC039 06/01 A3003 RMK AO2
KJST 301954Z AUTO 30009KT 10SM SCT024 OVC029 06/01 A3002 RMK AO2 SLP179 T00610011
KJST 301931Z AUTO 31008KT 10SM BKN026 OVC036 07/01 A3002 RMK AO2 T00670006
KJST 301854Z AUTO 31006KT 10SM OVC032 07/01 A3002 RMK AO2 SLP180 T00670011
KJST 301754Z AUTO 32008KT 10SM FEW024 OVC032 07/01 A3003 RMK AO2 SLP182 T00670011 10072 20039 58008
KJST 301730Z AUTO 30008KT 10SM SCT026 OVC034 07/01 A3004 RMK AO2 T00670006
KJST 301716Z AUTO 33007KT 10SM BKN028 OVC036 07/01 A3004 RMK AO2 T00670006
KJST 301654Z AUTO 30006KT 10SM FEW026 OVC035 07/01 A3005 RMK AO2 SLP186 T00670011
KJST 301621Z AUTO 31007KT 10SM FEW016 BKN030 OVC038 07/01 A3005 RMK AO2 T00670011
KJST 301601Z AUTO 35007KT 10SM BKN016 OVC024 06/02 A3006 RMK AO2 T00610017
KJST 301554Z AUTO 33007KT 10SM BKN014 BKN021 OVC026 07/02 A3006 RMK AO2 SLP190 T00670022
KJST 301527Z AUTO 30008KT 10SM BKN014 BKN020 OVC038 05/02 A3006 RMK AO2 T00500017
KJST 301517Z AUTO 30008KT 10SM SCT012 BKN019 OVC037 06/02 A3006 RMK AO2 T00560017
KJST 301454Z AUTO 31006KT 10SM BKN010 BKN016 OVC021 04/02 A3006 RMK AO2 SLP192 T00440017 51008
KJST 301354Z AUTO 29006KT 10SM BKN010 OVC016 04/02 A3006 RMK AO2 CIG 009V014 SLP190 T00440017
KJST 301254Z AUTO 29005KT 10SM OVC010 04/01 A3005 RMK AO2 SLP187 T00390011
KJST 301154Z AUTO 28006KT 10SM BKN011 OVC019 04/01 A3003 RMK AO2 SLP181 T00390011 10056 20039 52010
KJST 301054Z AUTO 28005KT 10SM OVC013 04/01 A3003 RMK AO2 SLP177 T00440011
KJST 301026Z AUTO 28007KT 10SM OVC014 04/01 A3002 RMK AO2 T00440006
KJST 300954Z AUTO 29006KT 10SM OVC016 04/01 A3001 RMK AO2 SLP173 T00440006
KJST 300854Z AUTO 28008KT 10SM OVC017 04/01 A3000 RMK AO2 SLP169 T00440006 53001
KJST 300754Z AUTO 27006KT 10SM BKN018 OVC032 04/00 A3000 RMK AO2 SLP167 T00440000
KJST 300654Z AUTO 27005KT 10SM BKN024 04/M01 A3000 RMK AO2 SLP167 T00441006
KJST 300613Z AUTO 30008KT 10SM BKN026 BKN045 OVC060 06/M01 A3000 RMK AO2 T00561006
KJST 300554Z AUTO 29007KT 10SM BKN043 OVC060 06/M01 A3000 RMK AO2 SLP167 T00561006 10094 20056 57000
KJST 300454Z AUTO 29008KT 10SM OVC041 06/M01 A3000 RMK AO2 SLP167 T00611006 401220061
KJST 300354Z AUTO 30008KT 10SM FEW038 BKN047 OVC060 07/M01 A3000 RMK AO2 SLP166 T00671011
KJST 300254Z AUTO 30008KT 10SM FEW031 FEW046 BKN060 07/00 A3000 RMK AO2 SLP168 T00670000 53008
KJST 300154Z AUTO 30011G19KT 10SM FEW044 OVC060 08/01 A2999 RMK AO2 SLP162 T00830011
KJST 300054Z AUTO 29007KT 10SM OVC060 09/01 A2997 RMK AO2 SLP155 T00890011
KJST 292354Z AUTO 27010G16KT 10SM OVC055 09/01 A2997 RMK AO2 SLP155 T00940006 10122 20094 51014
KJST 292254Z AUTO 27009KT 10SM OVC055 10/01 A2996 RMK AO2 SLP151 T01000006
KJST 292154Z AUTO 28009KT 10SM BKN050 10/01 A2995 RMK AO2 SLP145 T01000006
KJST 292054Z AUTO 27013G20KT 10SM BKN049 11/01 A2993 RMK AO2 SLP138 T01110006 55003
KJST 291954Z AUTO 28011G18KT 10SM FEW042 11/02 A2993 RMK AO2 SLP137 T01110017